createdAt,value
2023-02-22T00:01:34.496Z,60.10
2023-02-22T00:04:03.686Z,66.37
2023-02-22T00:06:31.073Z,70.73
2023-02-22T00:08:58.892Z,68.97
2023-02-22T00:11:26.377Z,66.97
2023-02-22T00:13:57.233Z,60.40
2023-02-22T00:16:26.185Z,61.50
2023-02-22T00:18:53.864Z,69.73
2023-02-22T00:21:21.072Z,69.17
2023-02-22T00:23:48.940Z,64.63
2023-02-22T00:26:18.872Z,66.13
2023-02-22T00:28:48.116Z,71.20
2023-02-22T00:31:15.770Z,67.53
2023-02-22T00:33:43.281Z,74.87
2023-02-22T00:36:11.838Z,64.90
2023-02-22T00:38:39.872Z,70.57
2023-02-22T00:41:07.205Z,62.60
2023-02-22T00:43:34.558Z,72.23
2023-02-22T00:46:01.512Z,62.17
2023-02-22T00:48:28.466Z,70.53
2023-02-22T00:50:55.451Z,71.80
2023-02-22T00:53:26.445Z,64.90
2023-02-22T00:55:53.818Z,69.40
2023-02-22T00:58:21.588Z,62.03
2023-02-22T01:00:48.751Z,63.60
2023-02-22T01:03:18.840Z,67.17
2023-02-22T01:05:46.611Z,58.30
2023-02-22T01:08:16.180Z,62.30
2023-02-22T01:10:43.002Z,60.77
2023-02-22T01:13:12.221Z,60.40
2023-02-22T01:15:42.073Z,56.63
2023-02-22T01:18:08.994Z,56.70
2023-02-22T01:20:36.089Z,57.80
2023-02-22T01:23:06.505Z,49.03
2023-02-22T01:25:33.906Z,54.27
2023-02-22T01:28:01.616Z,50.40
2023-02-22T01:30:31.077Z,51.03
2023-02-22T01:32:58.637Z,50.93
2023-02-22T01:35:31.850Z,53.23
2023-02-22T01:37:59.129Z,53.10
2023-02-22T01:40:29.688Z,56.40
2023-02-22T01:42:59.793Z,55.17
2023-02-22T01:45:35.276Z,50.87
2023-02-22T01:48:24.832Z,48.70
2023-02-22T01:51:32.501Z,56.30
2023-02-22T01:54:07.581Z,54.60
2023-02-22T01:56:38.531Z,52.63
2023-02-22T01:59:09.629Z,52.20
2023-02-22T02:01:39.439Z,51.30
2023-02-22T02:04:10.753Z,62.10
2023-02-22T02:06:38.625Z,63.70
2023-02-22T02:09:21.201Z,75.00
2023-02-22T02:11:49.611Z,71.20
2023-02-22T02:14:17.419Z,65.90
2023-02-22T02:16:47.726Z,66.87
2023-02-22T02:19:36.152Z,67.37
2023-02-22T02:22:30.110Z,66.93
2023-02-22T02:25:17.373Z,62.80
2023-02-22T02:28:11.583Z,62.03
2023-02-22T02:31:02.747Z,70.17
2023-02-22T02:33:34.148Z,74.67
2023-02-22T02:36:09.538Z,60.07
2023-02-22T02:38:43.612Z,72.43
2023-02-22T02:41:29.864Z,63.60
2023-02-22T02:44:05.991Z,67.53
2023-02-22T02:46:46.869Z,66.20
2023-02-22T02:49:22.194Z,77.30
2023-02-22T02:51:52.298Z,66.93
2023-02-22T02:54:23.354Z,62.03
2023-02-22T02:56:51.089Z,70.67
2023-02-22T02:59:29.795Z,68.70
2023-02-22T03:02:34.579Z,74.40
2023-02-22T03:05:15.996Z,68.10
2023-02-22T03:08:01.156Z,53.17
2023-02-22T03:10:46.104Z,67.40
2023-02-22T03:13:40.539Z,59.10
2023-02-22T03:16:38.238Z,131.47
2023-02-22T03:19:20.234Z,55.63
2023-02-22T03:21:55.894Z,45.23
2023-02-22T03:24:55.594Z,275.80
2023-02-22T03:27:25.136Z,55.20
2023-02-22T03:29:55.669Z,62.03
2023-02-22T03:32:26.030Z,49.83
2023-02-22T03:34:59.424Z,49.60
2023-02-22T03:37:30.430Z,51.97
2023-02-22T03:40:00.834Z,53.47
2023-02-22T03:42:34.752Z,52.20
2023-02-22T03:45:05.087Z,53.87
2023-02-22T03:47:40.107Z,47.23
2023-02-22T03:50:26.455Z,48.17
2023-02-22T03:52:53.728Z,57.37
2023-02-22T03:55:23.721Z,44.83
2023-02-22T03:57:54.947Z,54.00
2023-02-22T04:00:25.454Z,48.47
2023-02-22T04:02:52.463Z,47.90
2023-02-22T04:05:19.756Z,42.33
2023-02-22T04:07:46.564Z,47.13
2023-02-22T04:10:15.464Z,47.63
2023-02-22T04:12:42.248Z,44.87
2023-02-22T04:15:11.788Z,47.20
2023-02-22T04:17:38.943Z,385.10
2023-02-22T04:20:07.223Z,39.80
2023-02-22T04:22:33.983Z,37.20
2023-02-22T04:25:00.687Z,37.80
2023-02-22T04:27:27.425Z,37.90
2023-02-22T04:29:54.201Z,36.90
2023-02-22T04:32:20.938Z,45.60
2023-02-22T04:34:47.730Z,46.47
2023-02-22T04:37:14.470Z,38.67
2023-02-22T04:39:41.283Z,39.70
2023-02-22T04:42:08.010Z,44.77
2023-02-22T04:44:34.700Z,39.37
2023-02-22T04:47:01.458Z,40.07
2023-02-22T04:49:28.205Z,44.73
2023-02-22T04:51:56.878Z,42.17
2023-02-22T04:54:23.678Z,43.20
2023-02-22T04:56:50.434Z,36.37
2023-02-22T04:59:17.281Z,38.00
2023-02-22T05:01:44.578Z,37.37
2023-02-22T05:04:11.481Z,37.17
2023-02-22T05:06:38.197Z,42.70
2023-02-22T05:09:05.935Z,40.27
2023-02-22T05:11:32.636Z,39.80
2023-02-22T05:13:59.354Z,39.07
2023-02-22T05:16:26.555Z,35.40
2023-02-22T05:18:53.202Z,37.50
2023-02-22T05:21:19.940Z,49.67
2023-02-22T05:23:46.655Z,46.60
2023-02-22T05:26:13.448Z,62.30
2023-02-22T05:28:40.232Z,46.03
2023-02-22T05:31:07.531Z,42.63
2023-02-22T05:33:34.506Z,59.87
2023-02-22T05:36:01.318Z,102.73
2023-02-22T05:38:28.502Z,141.67
2023-02-22T05:40:55.305Z,394.57
2023-02-22T05:43:21.990Z,394.47
2023-02-22T05:45:48.790Z,314.17
2023-02-22T05:48:15.571Z,236.70
2023-02-22T05:50:42.351Z,195.27
2023-02-22T05:53:09.117Z,343.97
2023-02-22T05:55:35.894Z,336.10
2023-02-22T05:58:05.750Z,255.87
2023-02-22T06:00:33.071Z,125.40
2023-02-22T06:03:05.746Z,220.57
2023-02-22T06:05:32.776Z,233.80
2023-02-22T06:07:59.782Z,244.97
2023-02-22T06:10:27.925Z,169.87
2023-02-22T06:12:55.477Z,363.03
2023-02-22T06:15:23.817Z,141.07
2023-02-22T06:17:51.718Z,180.57
2023-02-22T06:20:20.953Z,94.17
2023-02-22T06:22:48.913Z,171.90
2023-02-22T06:25:18.609Z,89.57
2023-02-22T06:27:45.363Z,151.13
2023-02-22T06:30:13.866Z,156.23
2023-02-22T06:32:40.616Z,133.83
2023-02-22T06:35:07.703Z,120.50
2023-02-22T06:37:34.672Z,104.43
2023-02-22T06:40:05.592Z,89.40
2023-02-22T06:42:33.084Z,200.17
2023-02-22T06:44:59.945Z,155.93
2023-02-22T06:47:26.867Z,92.17
2023-02-22T06:49:55.399Z,118.17
2023-02-22T06:52:22.776Z,67.10
2023-02-22T06:54:50.008Z,111.37
2023-02-22T06:57:17.307Z,145.13
2023-02-22T06:59:44.170Z,101.03
2023-02-22T07:02:12.383Z,108.07
2023-02-22T07:04:42.896Z,111.37
2023-02-22T07:07:10.520Z,136.47
2023-02-22T07:09:37.528Z,73.17
2023-02-22T07:12:05.369Z,64.27
2023-02-22T07:14:32.140Z,92.20
2023-02-22T07:16:59.309Z,69.67
2023-02-22T07:19:26.125Z,93.77
2023-02-22T07:21:59.187Z,68.87
2023-02-22T07:24:28.385Z,80.27
2023-02-22T07:26:55.385Z,77.73
2023-02-22T07:29:22.555Z,38.93
2023-02-22T07:31:49.733Z,75.07
2023-02-22T07:34:16.472Z,30.40
2023-02-22T07:36:43.271Z,71.63
2023-02-22T07:39:11.153Z,34.83
2023-02-22T07:41:38.043Z,72.50
2023-02-22T07:44:05.031Z,32.50
2023-02-22T07:46:31.718Z,38.87
2023-02-22T07:48:58.432Z,75.13
2023-02-22T07:51:25.219Z,28.67
2023-02-22T07:53:52.028Z,130.00
2023-02-22T07:56:18.919Z,39.33
2023-02-22T07:58:45.613Z,69.40
2023-02-22T08:01:15.388Z,19.93
2023-02-22T08:03:42.598Z,45.53
2023-02-22T08:06:09.389Z,29.93
2023-02-22T08:08:36.184Z,56.87
2023-02-22T08:11:04.202Z,25.50
2023-02-22T08:13:31.066Z,30.03
2023-02-22T08:15:57.910Z,23.77
2023-02-22T08:18:25.836Z,27.57
2023-02-22T08:20:53.531Z,21.80
2023-02-22T08:23:22.588Z,20.30
2023-02-22T08:25:49.391Z,22.30
2023-02-22T08:28:19.858Z,24.00
2023-02-22T08:30:46.613Z,20.43
2023-02-22T08:33:16.755Z,22.47
2023-02-22T08:35:43.896Z,21.90
2023-02-22T08:38:32.097Z,33.77
2023-02-22T08:40:58.888Z,23.80
2023-02-22T08:43:25.668Z,22.80
2023-02-22T08:45:52.681Z,25.50
2023-02-22T08:48:20.638Z,26.10
2023-02-22T08:50:47.559Z,37.90
2023-02-22T08:53:16.411Z,26.03
2023-02-22T08:55:43.491Z,29.57
2023-02-22T08:58:10.649Z,29.00
2023-02-22T09:00:39.246Z,26.67
2023-02-22T09:03:13.091Z,27.10
2023-02-22T09:05:40.423Z,28.90
2023-02-22T09:08:07.244Z,34.03
2023-02-22T09:10:35.285Z,44.47
2023-02-22T09:13:03.988Z,46.20
2023-02-22T09:15:31.720Z,44.37
2023-02-22T09:17:58.860Z,38.07
2023-02-22T09:20:26.012Z,39.33
2023-02-22T09:22:53.393Z,41.50
2023-02-22T09:25:20.822Z,42.80
2023-02-22T09:27:52.158Z,48.63
2023-02-22T09:30:27.014Z,42.83
2023-02-22T09:32:59.766Z,39.83
2023-02-22T09:35:29.919Z,44.17
2023-02-22T09:37:58.304Z,40.93
2023-02-22T09:40:29.927Z,36.63
2023-02-22T09:43:25.951Z,41.13
2023-02-22T09:46:13.716Z,64.93
2023-02-22T09:49:13.942Z,48.50
2023-02-22T09:51:45.560Z,44.17
2023-02-22T09:54:24.378Z,45.93
2023-02-22T09:56:55.426Z,47.50
2023-02-22T09:59:28.522Z,45.30
2023-02-22T10:02:02.218Z,42.20
2023-02-22T10:04:41.324Z,42.03
2023-02-22T10:07:34.445Z,60.53
2023-02-22T10:10:06.401Z,42.80
2023-02-22T10:12:47.460Z,41.17
2023-02-22T10:15:45.022Z,37.80
2023-02-22T10:18:39.516Z,35.40
2023-02-22T10:21:27.773Z,33.00
2023-02-22T10:24:16.314Z,35.77
2023-02-22T10:26:44.613Z,34.33
2023-02-22T10:29:36.507Z,33.50
2023-02-22T10:32:12.256Z,37.63
2023-02-22T10:34:45.981Z,34.60
2023-02-22T10:37:34.320Z,33.40
2023-02-22T10:40:13.485Z,32.53
2023-02-22T10:42:40.268Z,30.03
2023-02-22T10:45:22.461Z,30.83
2023-02-22T10:47:50.342Z,27.70
2023-02-22T10:50:17.996Z,29.77
2023-02-22T10:52:44.710Z,29.50
2023-02-22T10:55:15.950Z,30.20
2023-02-22T10:57:46.190Z,28.37
2023-02-22T11:00:19.730Z,29.30
2023-02-22T11:03:02.720Z,30.37
2023-02-22T11:05:40.297Z,28.30
2023-02-22T11:08:22.388Z,30.47
2023-02-22T11:10:51.506Z,28.23
2023-02-22T11:13:26.012Z,27.60
2023-02-22T11:16:00.189Z,35.53
2023-02-22T11:18:29.001Z,28.30
2023-02-22T11:21:10.148Z,27.77
2023-02-22T11:23:39.699Z,30.43
2023-02-22T11:26:17.476Z,29.30
2023-02-22T11:28:50.285Z,28.87
2023-02-22T11:31:21.120Z,25.33
2023-02-22T11:36:40.916Z,25.60
2023-02-22T11:39:35.457Z,23.80
2023-02-22T11:42:25.032Z,31.53
2023-02-22T11:45:12.812Z,27.37
2023-02-22T11:47:55.618Z,25.53
2023-02-22T11:50:33.327Z,27.20
2023-02-22T11:53:15.503Z,27.47
2023-02-22T11:56:04.130Z,24.87
2023-02-22T11:59:00.503Z,21.63
2023-02-22T12:01:39.688Z,30.47
2023-02-22T12:04:27.720Z,25.53
2023-02-22T12:07:03.240Z,21.80
2023-02-22T12:10:00.727Z,22.83
2023-02-22T12:12:27.840Z,27.43
2023-02-22T12:15:18.039Z,23.27
2023-02-22T12:18:00.291Z,28.30
2023-02-22T12:20:51.121Z,20.50
2023-02-22T12:23:44.754Z,25.03
2023-02-22T12:26:25.544Z,24.47
2023-02-22T12:28:59.385Z,21.20
2023-02-22T12:31:29.325Z,27.17
2023-02-22T12:34:27.257Z,20.53
2023-02-22T12:37:16.952Z,20.83
2023-02-22T12:40:13.639Z,20.80
2023-02-22T12:43:01.868Z,22.37
2023-02-22T12:45:59.132Z,22.80
2023-02-22T12:49:03.376Z,26.90
2023-02-22T12:51:45.388Z,20.40
2023-02-22T12:54:25.416Z,22.67
2023-02-22T12:56:55.135Z,23.07
2023-02-22T12:59:36.333Z,19.63
2023-02-22T13:02:19.615Z,21.10
2023-02-22T13:04:46.599Z,18.87
2023-02-22T13:07:38.159Z,27.60
2023-02-22T13:10:49.856Z,19.20
2023-02-22T13:13:37.695Z,19.77
2023-02-22T13:16:22.253Z,17.50
2023-02-22T13:18:52.049Z,19.20
2023-02-22T13:21:27.983Z,19.47
2023-02-22T13:24:14.725Z,19.13
2023-02-22T13:26:47.144Z,17.07
2023-02-22T13:29:19.759Z,20.10
2023-02-22T13:32:05.069Z,22.87
2023-02-22T13:34:37.528Z,16.77
2023-02-22T13:37:50.573Z,18.17
2023-02-22T13:40:42.466Z,20.13
2023-02-22T13:43:27.803Z,16.30
2023-02-22T13:46:17.986Z,15.60
2023-02-22T13:49:03.727Z,16.80
2023-02-22T13:51:38.607Z,18.60
2023-02-22T13:54:22.226Z,15.63
2023-02-22T13:56:51.360Z,18.63
2023-02-22T13:59:36.301Z,19.93
2023-02-22T14:02:07.845Z,16.50
2023-02-22T14:04:38.272Z,22.90
2023-02-22T14:07:24.972Z,16.97
2023-02-22T14:09:53.636Z,18.17
2023-02-22T14:12:29.874Z,16.77
2023-02-22T14:15:28.250Z,18.27
2023-02-22T14:18:01.936Z,19.80
2023-02-22T14:20:37.069Z,16.93
2023-02-22T14:23:28.840Z,14.60
2023-02-22T14:25:57.100Z,19.87
2023-02-22T14:28:36.972Z,17.90
2023-02-22T14:31:29.422Z,19.60
2023-02-22T14:34:40.161Z,16.73
2023-02-22T14:37:13.066Z,24.10
2023-02-22T14:39:52.252Z,22.80
2023-02-22T14:42:28.239Z,23.13
2023-02-22T14:44:55.406Z,20.93
2023-02-22T14:47:30.386Z,21.37
2023-02-22T14:50:05.431Z,19.93
2023-02-22T14:52:37.268Z,19.50
2023-02-22T14:55:45.074Z,18.77
2023-02-22T14:58:28.350Z,19.80
2023-02-22T15:00:56.891Z,20.77
2023-02-22T15:03:37.772Z,19.90
2023-02-22T15:06:15.729Z,21.30
2023-02-22T15:08:48.552Z,16.27
2023-02-22T15:11:32.575Z,20.77
2023-02-22T15:14:01.617Z,14.93
2023-02-22T15:16:32.374Z,14.67
2023-02-22T15:19:04.202Z,24.20
2023-02-22T15:21:34.008Z,16.77
2023-02-22T15:24:04.160Z,18.83
2023-02-22T15:26:39.698Z,21.53
2023-02-22T15:29:39.894Z,16.53
2023-02-22T15:32:30.954Z,16.13
2023-02-22T15:35:29.019Z,22.63
2023-02-22T15:38:06.174Z,34.73
2023-02-22T15:40:33.693Z,17.53
2023-02-22T15:43:02.841Z,17.80
2023-02-22T15:45:32.400Z,20.57
2023-02-22T15:47:59.279Z,18.23
2023-02-22T15:50:33.329Z,18.53
2023-02-22T15:53:18.188Z,25.43
2023-02-22T15:55:49.896Z,25.33
2023-02-22T15:58:16.936Z,19.23
2023-02-22T16:00:46.894Z,21.33
2023-02-22T16:03:23.122Z,26.60
2023-02-22T16:05:55.589Z,23.47
2023-02-22T16:08:45.777Z,34.73
2023-02-22T16:11:29.856Z,25.20
2023-02-22T16:14:04.800Z,24.10
2023-02-22T16:16:43.310Z,42.53
2023-02-22T16:19:28.767Z,32.37
2023-02-22T16:22:06.344Z,23.20
2023-02-22T16:24:35.541Z,26.00
2023-02-22T16:27:24.058Z,19.50
2023-02-22T16:30:25.647Z,22.03
2023-02-22T16:32:57.110Z,20.17
2023-02-22T16:35:28.897Z,20.83
2023-02-22T16:38:04.983Z,24.47
2023-02-22T16:40:36.199Z,34.83
2023-02-22T16:43:07.241Z,24.83
2023-02-22T16:45:34.387Z,19.00
2023-02-22T16:48:04.924Z,27.63
2023-02-22T16:50:31.888Z,23.47
2023-02-22T16:53:00.620Z,21.00
2023-02-22T16:55:27.533Z,23.90
2023-02-22T16:57:56.895Z,19.10
2023-02-22T17:00:31.361Z,28.43
2023-02-22T17:03:03.993Z,23.47
2023-02-22T17:05:31.958Z,22.50
2023-02-22T17:07:58.712Z,23.67
2023-02-22T17:10:26.821Z,17.47
2023-02-22T17:12:53.705Z,23.53
2023-02-22T17:15:24.847Z,18.33
2023-02-22T17:17:52.612Z,25.70
2023-02-22T17:20:31.702Z,21.83
2023-02-22T17:23:04.374Z,23.20
2023-02-22T17:25:33.551Z,20.83
2023-02-22T17:28:00.369Z,25.70
2023-02-22T17:30:28.057Z,24.10
2023-02-22T17:33:03.397Z,21.43
2023-02-22T17:35:35.087Z,27.70
2023-02-22T17:38:06.140Z,18.93
2023-02-22T17:40:36.863Z,23.30
2023-02-22T17:43:05.694Z,20.67
2023-02-22T17:45:32.514Z,22.30
2023-02-22T17:47:59.640Z,20.80
2023-02-22T17:50:27.114Z,37.27
2023-02-22T17:52:54.576Z,24.00
2023-02-22T17:55:22.218Z,34.63
2023-02-22T17:57:58.190Z,24.30
2023-02-22T18:00:34.240Z,24.63
2023-02-22T18:03:09.812Z,22.63
2023-02-22T18:05:42.075Z,27.50
2023-02-22T18:08:08.887Z,28.40
2023-02-22T18:10:35.693Z,27.70
2023-02-22T18:13:02.405Z,26.08
2023-02-22T18:15:34.775Z,30.40
2023-02-22T18:18:03.114Z,39.47
2023-02-22T18:20:38.159Z,36.37
2023-02-22T18:23:07.529Z,23.97
2023-02-22T18:25:36.401Z,22.70
2023-02-22T18:28:06.291Z,27.30
2023-02-22T18:30:35.868Z,21.97
2023-02-22T18:33:03.859Z,29.90
2023-02-22T18:35:31.156Z,30.60
2023-02-22T18:37:58.077Z,34.83
2023-02-22T18:40:24.771Z,25.37
2023-02-22T18:42:51.539Z,23.07
2023-02-22T18:45:19.220Z,22.60
2023-02-22T18:47:45.943Z,20.80
2023-02-22T18:50:14.056Z,21.00
2023-02-22T18:52:46.877Z,21.50
2023-02-22T18:55:15.986Z,34.20
2023-02-22T18:57:42.799Z,28.00
2023-02-22T19:00:13.364Z,25.93
2023-02-22T19:02:43.554Z,29.17
2023-02-22T19:05:11.823Z,24.03
2023-02-22T19:07:39.190Z,25.93
2023-02-22T19:10:07.317Z,23.80
2023-02-22T19:12:34.295Z,23.10
2023-02-22T19:15:01.397Z,23.77
2023-02-22T19:17:29.710Z,25.53
2023-02-22T19:19:56.502Z,21.23
2023-02-22T19:22:26.265Z,20.90
2023-02-22T19:24:54.222Z,26.53
2023-02-22T19:27:21.541Z,24.67
2023-02-22T19:29:49.440Z,26.17
2023-02-22T19:32:17.364Z,23.70
2023-02-22T19:34:44.641Z,20.10
2023-02-22T19:37:13.118Z,19.50
2023-02-22T19:39:42.234Z,23.77
2023-02-22T19:42:10.289Z,23.33
2023-02-22T19:44:37.796Z,23.10
2023-02-22T19:47:09.111Z,30.73
2023-02-22T19:49:40.998Z,29.93
2023-02-22T19:52:08.291Z,28.90
2023-02-22T19:54:35.103Z,26.60
2023-02-22T19:57:02.161Z,31.33
2023-02-22T19:59:29.191Z,32.77
2023-02-22T20:01:56.839Z,24.40
2023-02-22T20:04:24.767Z,28.43
2023-02-22T20:06:57.524Z,24.80
2023-02-22T20:09:40.223Z,22.90
2023-02-22T20:12:07.850Z,29.63
2023-02-22T20:14:34.967Z,20.63
2023-02-22T20:17:01.981Z,23.00
2023-02-22T20:19:29.012Z,24.30
2023-02-22T20:21:56.690Z,29.23
2023-02-22T20:24:24.086Z,29.20
2023-02-22T20:26:55.580Z,29.23
2023-02-22T20:29:29.420Z,28.20
2023-02-22T20:32:00.550Z,23.80
2023-02-22T20:34:31.268Z,29.90
2023-02-22T20:36:59.184Z,27.20
2023-02-22T20:39:26.103Z,34.03
2023-02-22T20:41:54.622Z,36.23
2023-02-22T20:44:21.696Z,37.57
2023-02-22T20:46:48.847Z,45.23
2023-02-22T20:49:18.791Z,45.57
2023-02-22T20:51:46.567Z,47.43
2023-02-22T20:54:13.765Z,52.30
2023-02-22T20:56:43.278Z,54.73
2023-02-22T20:59:15.843Z,50.60
2023-02-22T21:01:43.064Z,53.97
2023-02-22T21:04:11.144Z,45.07
2023-02-22T21:06:39.624Z,50.93
2023-02-22T21:09:08.881Z,41.60
2023-02-22T21:11:35.998Z,33.93
2023-02-22T21:14:03.547Z,25.70
2023-02-22T21:16:35.400Z,27.03
2023-02-22T21:19:05.484Z,27.83
2023-02-22T21:21:32.807Z,25.27
2023-02-22T21:24:01.797Z,22.20
2023-02-22T21:26:32.373Z,23.10
2023-02-22T21:29:03.345Z,21.20
2023-02-22T21:31:31.582Z,24.73
2023-02-22T21:33:59.999Z,22.20
2023-02-22T21:36:28.060Z,24.60
2023-02-22T21:38:57.281Z,25.27
2023-02-22T21:41:27.644Z,27.33
2023-02-22T21:43:56.314Z,23.30
2023-02-22T21:46:24.078Z,25.27
2023-02-22T21:48:51.120Z,22.47
2023-02-22T21:51:23.529Z,24.20
2023-02-22T21:53:53.344Z,31.43
2023-02-22T21:56:27.291Z,22.97
2023-02-22T21:58:59.512Z,27.13
2023-02-22T22:01:31.936Z,27.67
2023-02-22T22:03:59.728Z,24.07
2023-02-22T22:06:28.217Z,28.37
2023-02-22T22:08:55.895Z,26.60
2023-02-22T22:11:24.028Z,30.37
2023-02-22T22:13:52.362Z,28.80
2023-02-22T22:16:20.403Z,27.13
2023-02-22T22:18:47.371Z,33.23
2023-02-22T22:21:18.276Z,37.93
2023-02-22T22:23:47.183Z,39.40
2023-02-22T22:26:16.329Z,33.97
2023-02-22T22:28:49.046Z,41.77
2023-02-22T22:31:17.363Z,42.07
2023-02-22T22:33:45.202Z,37.83
2023-02-22T22:36:14.872Z,43.43
2023-02-22T22:38:42.567Z,35.90
2023-02-22T22:41:13.223Z,31.33
2023-02-22T22:43:41.833Z,35.30
2023-02-22T22:46:09.135Z,28.97
2023-02-22T22:48:39.003Z,31.90
2023-02-22T22:51:11.688Z,28.17
2023-02-22T22:53:41.633Z,35.30
2023-02-22T22:56:17.618Z,35.13
2023-02-22T22:58:49.859Z,30.17
2023-02-22T23:01:19.449Z,40.27
2023-02-22T23:04:02.601Z,34.20
2023-02-22T23:06:32.889Z,28.63
2023-02-22T23:09:25.180Z,31.40
2023-02-22T23:11:55.760Z,38.47
2023-02-22T23:14:33.423Z,35.57
2023-02-22T23:17:03.827Z,41.13
2023-02-22T23:19:35.953Z,36.77
2023-02-22T23:22:05.396Z,42.27
2023-02-22T23:24:36.087Z,35.87
2023-02-22T23:27:07.183Z,42.97
2023-02-22T23:29:38.165Z,38.37
2023-02-22T23:32:06.031Z,39.27
2023-02-22T23:34:33.410Z,39.03
2023-02-22T23:37:00.143Z,40.37
2023-02-22T23:39:27.289Z,39.30
2023-02-22T23:42:01.080Z,46.70
2023-02-22T23:44:28.244Z,38.10
2023-02-22T23:46:55.926Z,48.87
2023-02-22T23:49:27.440Z,48.27
2023-02-22T23:51:54.516Z,50.93
2023-02-22T23:54:24.377Z,50.10
2023-02-22T23:56:57.012Z,45.43
2023-02-22T23:59:28.060Z,44.83
